Time;durP1;ratioP1;P1;durP2;ratioP2;P2;SDS_P1;SDS_P2;PMS_P1;PMS_P2;Temp;Humidity;BMP_temperature;BMP_pressure;BME280_temperature;BME280_humidity;BME280_pressure;Samples;Min_cycle;Max_cycle;Signal;HPM_P1;HPM_P2
2021/03/11 00:02:15;;;;;;;20.87;11.60;;;5.00;99.90;;;;;;5075063;28;20191;-81
2021/03/11 00:04:43;;;;;;;25.60;11.80;;;5.00;99.90;;;;;;5074584;28;20180;-77
2021/03/11 00:07:09;;;;;;;17.95;11.05;;;5.00;99.90;;;;;;5074207;28;20195;-78
2021/03/11 00:09:34;;;;;;;29.17;14.00;;;5.00;99.90;;;;;;5075647;28;20816;-77
2021/03/11 00:12:00;;;;;;;22.33;13.70;;;5.00;99.90;;;;;;5057621;28;20497;-78
2021/03/11 00:14:26;;;;;;;21.27;12.20;;;5.00;99.90;;;;;;5075271;28;20527;-79
2021/03/11 00:16:51;;;;;;;20.20;12.10;;;5.00;99.90;;;;;;5075826;28;20167;-77
2021/03/11 00:19:17;;;;;;;23.73;11.83;;;5.00;99.90;;;;;;5075583;28;20207;-79
2021/03/11 00:21:42;;;;;;;21.40;12.60;;;5.00;99.90;;;;;;5076147;28;20255;-78
2021/03/11 00:24:11;;;;;;;22.80;12.07;;;5.00;99.90;;;;;;5075703;28;20201;-78
2021/03/11 00:26:36;;;;;;;26.02;11.15;;;5.00;99.90;;;;;;5075257;28;20653;-78
2021/03/11 00:29:02;;;;;;;35.27;13.93;;;5.00;99.90;;;;;;5075408;28;20199;-79
2021/03/11 00:31:27;;;;;;;24.47;11.33;;;5.00;99.90;;;;;;5075325;28;20225;-78
2021/03/11 00:33:55;;;;;;;23.63;12.10;;;5.00;99.90;;;;;;5075528;28;20233;-82
2021/03/11 00:36:21;;;;;;;31.08;14.77;;;5.00;99.90;;;;;;5075597;28;20542;-78
2021/03/11 00:38:46;;;;;;;26.63;13.40;;;4.90;99.90;;;;;;5075206;28;20180;-77
2021/03/11 00:41:12;;;;;;;26.23;12.50;;;5.00;99.90;;;;;;5075617;28;20222;-81
2021/03/11 00:43:37;;;;;;;19.43;10.97;;;5.00;99.90;;;;;;5074178;28;20219;-78
2021/03/11 00:46:03;;;;;;;26.23;12.73;;;5.00;99.90;;;;;;5075222;28;20179;-78
2021/03/11 00:48:29;;;;;;;21.47;12.20;;;5.00;99.90;;;;;;5075527;28;20168;-79
2021/03/11 00:50:57;;;;;;;24.07;12.87;;;5.00;99.90;;;;;;5073609;28;20229;-78
2021/03/11 00:53:23;;;;;;;24.20;12.88;;;4.90;99.90;;;;;;5074897;28;20659;-79
2021/03/11 00:55:48;;;;;;;22.37;13.10;;;5.00;99.90;;;;;;5075642;28;20242;-78
2021/03/11 00:58:14;;;;;;;27.53;13.73;;;5.00;99.90;;;;;;5075182;28;20516;-78
2021/03/11 01:00:42;;;;;;;20.50;11.57;;;5.00;99.90;;;;;;5040432;28;20214;-78
2021/03/11 01:03:07;;;;;;;26.38;13.75;;;4.90;99.90;;;;;;5057199;28;20172;-78
2021/03/11 01:05:33;;;;;;;29.07;13.83;;;5.00;99.90;;;;;;5073061;28;20169;-78
2021/03/11 01:07:59;;;;;;;33.17;15.27;;;4.90;99.90;;;;;;5074877;28;20243;-79
2021/03/11 01:10:25;;;;;;;33.90;14.50;;;5.00;99.90;;;;;;5073007;28;20273;-80
2021/03/11 01:12:51;;;;;;;27.85;15.05;;;5.00;99.90;;;;;;5073105;28;20184;-80
2021/03/11 01:15:20;;;;;;;28.52;14.50;;;5.00;99.90;;;;;;5073995;28;20180;-80
2021/03/11 01:17:47;;;;;;;31.80;15.73;;;5.00;99.90;;;;;;5075511;28;20179;-79
2021/03/11 01:20:19;;;;;;;31.35;15.45;;;5.00;99.90;;;;;;5073172;28;20208;-79
2021/03/11 01:22:45;;;;;;;28.23;13.23;;;5.00;99.90;;;;;;5074369;28;20168;-78
2021/03/11 01:25:11;;;;;;;33.25;14.40;;;4.90;99.90;;;;;;5074580;28;20172;-78
2021/03/11 01:27:39;;;;;;;30.05;14.38;;;5.00;99.90;;;;;;5056442;28;20546;-78
2021/03/11 01:30:09;;;;;;;27.67;13.82;;;5.00;99.90;;;;;;5056289;28;20265;-78
2021/03/11 01:32:42;;;;;;;27.48;13.75;;;5.00;99.90;;;;;;5072766;28;20207;-79
2021/03/11 01:35:08;;;;;;;32.17;14.98;;;5.10;99.90;;;;;;5075251;28;20275;-81
2021/03/11 01:37:34;;;;;;;30.83;14.48;;;5.10;99.90;;;;;;5074904;28;20171;-78
2021/03/11 01:40:00;;;;;;;32.57;13.83;;;5.00;99.90;;;;;;5074094;28;20203;-80
2021/03/11 01:42:26;;;;;;;28.27;13.70;;;5.00;99.90;;;;;;5074171;28;20179;-80
2021/03/11 01:44:51;;;;;;;31.53;15.70;;;5.00;99.90;;;;;;5074063;28;20176;-78
2021/03/11 01:47:17;;;;;;;34.57;15.10;;;5.00;99.90;;;;;;5074295;28;20543;-79
2021/03/11 01:49:42;;;;;;;32.10;14.33;;;5.00;99.90;;;;;;5073975;28;20192;-79
2021/03/11 01:52:08;;;;;;;28.40;12.57;;;5.10;99.90;;;;;;5073533;28;20199;-80
2021/03/11 01:54:35;;;;;;;28.63;14.90;;;5.10;99.90;;;;;;5073453;28;20657;-78
2021/03/11 01:57:01;;;;;;;27.88;13.65;;;5.10;99.90;;;;;;5072967;28;20172;-80
2021/03/11 01:59:28;;;;;;;29.98;14.02;;;5.10;99.90;;;;;;5074589;28;20219;-80
2021/03/11 02:01:56;;;;;;;32.50;15.45;;;5.10;99.90;;;;;;5074292;28;20175;-79
2021/03/11 02:04:21;;;;;;;30.83;14.57;;;5.10;99.90;;;;;;5074415;28;20172;-79
2021/03/11 02:06:47;;;;;;;25.70;14.63;;;5.10;99.90;;;;;;5072810;28;20179;-78
2021/03/11 02:09:12;;;;;;;25.77;14.00;;;5.00;99.90;;;;;;5072479;28;20188;-79
2021/03/11 02:11:43;;;;;;;32.60;14.33;;;5.10;99.90;;;;;;5072822;28;20180;-79
2021/03/11 02:14:24;;;;;;;33.80;15.00;;;5.10;99.90;;;;;;5073649;28;20175;-79
2021/03/11 02:16:53;;;;;;;35.92;14.63;;;5.10;99.90;;;;;;5073850;28;20592;-79
2021/03/11 02:19:46;;;;;;;41.08;17.13;;;5.10;99.90;;;;;;5072317;28;20698;-79
2021/03/11 02:22:12;;;;;;;30.60;14.52;;;5.10;99.90;;;;;;5072343;28;20172;-77
2021/03/11 02:25:05;;;;;;;35.77;15.33;;;5.10;99.90;;;;;;5073909;28;20165;-79
2021/03/11 02:27:38;;;;;;;28.83;14.52;;;5.10;99.90;;;;;;5074762;28;20191;-79
2021/03/11 02:30:04;;;;;;;33.30;16.80;;;5.20;99.90;;;;;;5075555;28;20199;-79
2021/03/11 02:32:34;;;;;;;26.35;13.20;;;5.20;99.90;;;;;;5075162;28;20171;-80
2021/03/11 02:35:01;;;;;;;31.15;14.48;;;5.20;99.90;;;;;;5074807;28;20168;-80
2021/03/11 02:37:44;;;;;;;31.98;15.40;;;5.20;99.90;;;;;;5073657;28;20187;-80
2021/03/11 02:40:20;;;;;;;33.08;16.17;;;5.30;99.90;;;;;;5074671;28;20219;-81
2021/03/11 02:42:48;;;;;;;29.88;15.57;;;5.30;99.90;;;;;;5076926;28;20566;-81
2021/03/11 02:45:19;;;;;;;29.20;15.63;;;5.30;99.90;;;;;;5075184;28;20171;-80
2021/03/11 02:47:45;;;;;;;35.63;15.82;;;5.20;99.90;;;;;;5077143;28;20172;-80
2021/03/11 02:50:12;;;;;;;32.43;16.37;;;5.20;99.90;;;;;;5075231;28;20192;-79
2021/03/11 02:52:38;;;;;;;32.75;15.60;;;5.30;99.90;;;;;;5073422;28;20507;-79
2021/03/11 02:55:05;;;;;;;27.17;12.95;;;5.30;99.90;;;;;;5074640;28;20476;-79
2021/03/11 02:57:36;;;;;;;37.42;16.33;;;5.30;99.90;;;;;;5076651;28;20205;-80
2021/03/11 03:00:11;;;;;;;32.88;14.90;;;5.20;99.90;;;;;;5060528;28;20208;-81
2021/03/11 03:02:40;;;;;;;31.55;15.52;;;5.30;99.90;;;;;;5079809;28;20160;-81
2021/03/11 03:05:16;;;;;;;33.35;16.40;;;5.20;99.90;;;;;;5062020;28;20172;-80
2021/03/11 03:07:44;;;;;;;37.40;16.25;;;5.20;99.90;;;;;;5061783;28;20198;-80
2021/03/11 03:10:10;;;;;;;44.88;17.13;;;5.30;99.90;;;;;;5077499;28;20516;-80
2021/03/11 03:12:37;;;;;;;32.78;15.07;;;5.30;99.90;;;;;;5077213;28;20198;-80
2021/03/11 03:15:06;;;;;;;31.95;16.80;;;5.30;99.90;;;;;;5077517;28;20180;-80
2021/03/11 03:17:33;;;;;;;35.80;16.42;;;5.40;99.90;;;;;;5074919;28;20180;-79
2021/03/11 03:20:06;;;;;;;37.50;15.05;;;5.40;99.90;;;;;;5077174;28;20199;-81
2021/03/11 03:22:32;;;;;;;34.90;16.23;;;5.40;99.90;;;;;;5080423;28;20218;-82
2021/03/11 03:24:58;;;;;;;33.58;14.68;;;5.40;99.90;;;;;;5094890;28;20188;-82
2021/03/11 03:27:23;;;;;;;31.10;15.37;;;5.40;99.90;;;;;;5095644;28;20171;-82
2021/03/11 03:29:49;;;;;;;25.53;14.10;;;5.40;99.90;;;;;;5095952;28;20184;-81
2021/03/11 03:32:14;;;;;;;31.67;15.30;;;5.40;99.90;;;;;;5091473;28;20172;-79
2021/03/11 03:34:40;;;;;;;27.37;14.07;;;5.40;99.90;;;;;;5078128;28;20176;-80
2021/03/11 03:37:06;;;;;;;31.70;15.63;;;5.30;99.90;;;;;;5075360;28;20539;-79
2021/03/11 03:39:33;;;;;;;25.97;14.43;;;5.40;99.90;;;;;;5078700;28;20207;-82
2021/03/11 03:41:59;;;;;;;32.28;14.60;;;5.40;99.90;;;;;;5082190;28;20176;-80
2021/03/11 03:44:35;;;;;;;39.85;16.95;;;5.40;99.90;;;;;;5083250;28;20176;-81
2021/03/11 03:47:02;;;;;;;31.25;14.35;;;5.40;99.90;;;;;;5080637;28;20174;-81
2021/03/11 03:49:28;;;;;;;29.15;13.63;;;5.40;99.90;;;;;;5083972;28;20199;-81
2021/03/11 03:51:58;;;;;;;29.15;14.15;;;5.40;99.90;;;;;;5081287;28;20271;-81
2021/03/11 03:54:28;;;;;;;38.42;15.32;;;5.40;99.90;;;;;;5078412;28;20183;-80
2021/03/11 03:57:01;;;;;;;32.70;14.05;;;5.40;99.90;;;;;;5077700;28;20547;-81
2021/03/11 03:59:31;;;;;;;32.67;17.00;;;5.50;99.90;;;;;;5079284;28;20203;-79
2021/03/11 04:01:58;;;;;;;40.90;17.08;;;5.40;99.90;;;;;;5076659;28;20235;-79
2021/03/11 04:04:29;;;;;;;32.47;15.70;;;5.40;99.90;;;;;;5076454;28;20190;-79
2021/03/11 04:06:57;;;;;;;34.30;15.68;;;5.40;99.90;;;;;;5076369;28;20199;-80
2021/03/11 04:09:26;;;;;;;35.67;17.35;;;5.40;99.90;;;;;;5075324;28;20184;-80
2021/03/11 04:11:52;;;;;;;28.50;13.82;;;5.40;99.90;;;;;;5071700;28;20251;-80
2021/03/11 04:14:20;;;;;;;35.33;15.25;;;5.30;99.90;;;;;;5072867;28;20733;-80
2021/03/11 04:16:47;;;;;;;37.83;15.82;;;5.30;99.90;;;;;;5073923;28;20172;-80
2021/03/11 04:19:13;;;;;;;32.47;15.90;;;5.40;99.90;;;;;;5073131;28;20196;-79
2021/03/11 04:21:40;;;;;;;32.28;16.85;;;5.30;99.90;;;;;;5071867;28;20672;-79
2021/03/11 04:24:07;;;;;;;27.88;14.50;;;5.30;99.90;;;;;;5073698;28;20172;-80
2021/03/11 04:26:34;;;;;;;37.47;16.40;;;5.30;99.90;;;;;;5077006;28;20160;-80
2021/03/11 04:29:00;;;;;;;31.70;14.18;;;5.40;99.90;;;;;;5060327;28;20294;-81
2021/03/11 04:31:27;;;;;;;28.37;14.87;;;5.40;99.90;;;;;;5074265;28;20211;-79
2021/03/11 04:33:53;;;;;;;34.38;16.27;;;5.40;99.90;;;;;;5075019;28;20271;-82
2021/03/11 04:36:19;;;;;;;32.30;15.65;;;5.50;99.90;;;;;;5075273;28;20176;-81
2021/03/11 04:38:46;;;;;;;35.92;14.68;;;5.50;99.90;;;;;;5072377;28;20176;-79
2021/03/11 04:41:14;;;;;;;28.02;13.85;;;5.50;99.90;;;;;;5055773;28;20223;-79
2021/03/11 04:43:41;;;;;;;21.58;14.30;;;5.50;99.90;;;;;;5075127;28;20192;-79
2021/03/11 04:46:07;;;;;;;29.77;13.48;;;5.40;99.90;;;;;;5075391;28;20164;-80
2021/03/11 04:48:34;;;;;;;27.65;14.90;;;5.30;99.90;;;;;;5076321;28;20203;-79
2021/03/11 04:51:08;;;;;;;34.78;16.40;;;5.30;99.90;;;;;;5077017;28;20241;-79
2021/03/11 04:53:34;;;;;;;23.52;12.23;;;5.40;99.90;;;;;;5075545;28;20669;-80
2021/03/11 04:56:00;;;;;;;28.03;13.23;;;5.40;99.90;;;;;;5077945;28;20176;-80
2021/03/11 04:58:28;;;;;;;34.47;15.80;;;5.40;99.90;;;;;;5079349;28;20444;-80
2021/03/11 05:00:55;;;;;;;23.23;11.90;;;5.30;99.90;;;;;;5080406;28;20196;-80
2021/03/11 05:03:21;;;;;;;34.80;12.65;;;5.30;99.90;;;;;;5075793;28;20168;-78
2021/03/11 05:05:47;;;;;;;28.25;15.30;;;5.30;99.90;;;;;;5077829;28;20172;-80
2021/03/11 05:08:13;;;;;;;29.23;14.43;;;5.30;99.90;;;;;;5075890;28;20160;-79
2021/03/11 05:10:39;;;;;;;34.33;15.82;;;5.20;99.90;;;;;;5076953;28;20608;-80
2021/03/11 05:13:05;;;;;;;28.25;13.45;;;5.30;99.90;;;;;;5081503;28;20187;-81
2021/03/11 05:15:31;;;;;;;32.67;13.57;;;5.40;99.90;;;;;;5082282;28;20251;-80
2021/03/11 05:17:58;;;;;;;32.40;15.13;;;5.40;99.90;;;;;;5081782;28;20879;-80
2021/03/11 05:20:25;;;;;;;34.28;15.25;;;5.20;99.90;;;;;;5080872;28;20477;-80
2021/03/11 05:22:51;;;;;;;37.05;15.07;;;5.30;99.90;;;;;;5079703;28;20168;-80
2021/03/11 05:25:17;;;;;;;29.73;14.23;;;5.30;99.90;;;;;;5078076;28;20191;-80
2021/03/11 05:27:42;;;;;;;31.17;13.93;;;5.30;99.90;;;;;;5089071;28;20180;-80
2021/03/11 05:30:11;;;;;;;27.60;14.23;;;5.20;99.90;;;;;;5093082;28;20195;-84
2021/03/11 05:32:37;;;;;;;27.42;14.10;;;5.30;99.90;;;;;;5080847;28;20191;-80
2021/03/11 05:35:05;;;;;;;31.30;13.10;;;5.30;99.90;;;;;;5063223;28;20251;-80
2021/03/11 05:37:30;;;;;;;29.20;12.95;;;5.40;99.90;;;;;;5080037;28;20176;-81
2021/03/11 05:40:00;;;;;;;24.10;12.47;;;5.40;99.90;;;;;;5067875;28;20195;-81
2021/03/11 05:42:26;;;;;;;26.58;14.00;;;5.40;99.90;;;;;;5081589;28;20381;-80
2021/03/11 05:44:52;;;;;;;22.50;13.75;;;5.30;99.90;;;;;;5070259;28;20203;-80
2021/03/11 05:47:19;;;;;;;25.13;12.40;;;5.40;99.90;;;;;;5078320;28;20192;-81
2021/03/11 05:49:45;;;;;;;26.98;13.57;;;5.40;99.90;;;;;;5082025;28;20207;-80
2021/03/11 05:52:12;;;;;;;24.92;10.95;;;5.50;99.90;;;;;;5078878;28;20314;-79
2021/03/11 05:54:38;;;;;;;26.52;11.90;;;5.50;99.90;;;;;;5076674;28;20178;-79
2021/03/11 05:57:06;;;;;;;25.33;12.93;;;5.50;99.90;;;;;;5061290;28;20248;-80
2021/03/11 05:59:32;;;;;;;23.77;11.95;;;5.50;99.90;;;;;;5058649;28;20459;-80
2021/03/11 06:02:03;;;;;;;28.30;13.13;;;5.50;99.90;;;;;;5066931;28;20241;-81
2021/03/11 06:04:34;;;;;;;29.35;13.80;;;5.50;99.90;;;;;;5066476;28;20302;-80
2021/03/11 06:07:05;;;;;;;28.35;13.38;;;5.60;99.90;;;;;;5059544;28;20175;-80
2021/03/11 06:09:34;;;;;;;27.67;11.75;;;5.50;99.90;;;;;;5063645;28;20319;-81
2021/03/11 06:12:01;;;;;;;24.23;12.10;;;5.60;99.90;;;;;;5058602;28;20177;-79
2021/03/11 06:14:37;;;;;;;30.77;13.18;;;5.50;99.90;;;;;;5068825;28;20275;-79
2021/03/11 06:17:06;;;;;;;27.73;14.57;;;5.50;99.90;;;;;;5060724;28;20199;-80
2021/03/11 06:19:37;;;;;;;26.85;12.07;;;5.50;99.90;;;;;;5073951;28;20199;-78
2021/03/11 06:22:03;;;;;;;26.88;11.90;;;5.50;99.90;;;;;;5063178;28;20180;-79
2021/03/11 06:24:29;;;;;;;26.20;14.03;;;5.60;99.90;;;;;;5037204;28;20181;-78
2021/03/11 06:26:58;;;;;;;24.83;13.30;;;5.50;99.90;;;;;;5066813;28;20740;-80
2021/03/11 06:29:38;;;;;;;27.55;13.25;;;5.50;99.90;;;;;;5072379;28;20238;-78
2021/03/11 06:32:04;;;;;;;32.30;15.43;;;5.50;99.90;;;;;;5053867;28;20177;-80
2021/03/11 06:34:39;;;;;;;29.13;13.75;;;5.50;99.90;;;;;;5055906;28;20232;-79
2021/03/11 06:37:08;;;;;;;23.00;12.18;;;5.50;99.90;;;;;;5053943;28;20177;-79
2021/03/11 06:39:38;;;;;;;24.77;12.77;;;5.50;99.90;;;;;;5054820;28;20205;-79
2021/03/11 06:42:04;;;;;;;24.92;12.05;;;5.50;99.90;;;;;;5053679;28;20175;-79
2021/03/11 06:44:44;;;;;;;27.02;12.32;;;5.60;99.90;;;;;;5058654;28;20241;-79
2021/03/11 06:47:14;;;;;;;41.47;16.90;;;5.50;99.90;;;;;;5073268;28;20163;-78
2021/03/11 06:50:00;;;;;;;19.23;11.95;;;5.50;99.90;;;;;;5075651;28;20196;-83
2021/03/11 06:52:27;;;;;;;27.90;11.80;;;5.50;99.90;;;;;;5072821;28;20191;-81
2021/03/11 06:54:56;;;;;;;30.42;13.65;;;5.50;99.90;;;;;;5064433;28;20497;-82
2021/03/11 06:57:33;;;;;;;24.73;12.10;;;5.50;99.90;;;;;;5049656;28;20180;-80
2021/03/11 07:00:18;;;;;;;24.90;11.30;;;5.40;99.90;;;;;;5064696;28;20204;-81
2021/03/11 07:03:00;;;;;;;19.80;10.68;;;5.40;99.90;;;;;;5059513;28;20172;-79
2021/03/11 07:05:29;;;;;;;22.08;11.50;;;5.40;99.90;;;;;;5058202;28;20180;-78
2021/03/11 07:08:11;;;;;;;20.13;12.45;;;5.40;99.90;;;;;;5073069;28;20176;-77
2021/03/11 07:10:37;;;;;;;26.35;12.45;;;5.40;99.90;;;;;;5069849;28;20680;-78
2021/03/11 07:13:04;;;;;;;22.57;11.43;;;5.50;99.90;;;;;;5073421;28;20238;-76
2021/03/11 07:15:32;;;;;;;23.83;13.00;;;5.50;99.90;;;;;;5055534;28;20212;-77
2021/03/11 07:17:59;;;;;;;23.42;12.98;;;5.50;99.90;;;;;;5052249;28;20259;-77
2021/03/11 07:20:32;;;;;;;27.42;12.35;;;5.60;99.90;;;;;;5052883;28;20208;-79
2021/03/11 07:22:59;;;;;;;23.90;11.90;;;5.60;99.90;;;;;;5053029;28;20164;-77
2021/03/11 07:25:42;;;;;;;24.88;11.65;;;5.60;99.90;;;;;;5067329;28;20179;-78
2021/03/11 07:28:22;;;;;;;24.75;12.40;;;5.60;99.90;;;;;;5057427;28;20168;-78
2021/03/11 07:30:55;;;;;;;23.42;11.60;;;5.70;99.90;;;;;;5057606;28;20196;-79
2021/03/11 07:33:23;;;;;;;22.92;11.98;;;5.70;99.90;;;;;;5065793;28;20180;-77
2021/03/11 07:35:50;;;;;;;27.70;12.80;;;5.70;99.90;;;;;;5067317;28;20183;-77
2021/03/11 07:38:18;;;;;;;26.25;13.50;;;5.70;99.90;;;;;;5065943;28;20198;-78
2021/03/11 07:40:46;;;;;;;29.27;12.50;;;5.70;99.90;;;;;;5059267;28;20623;-77
2021/03/11 07:43:14;;;;;;;22.75;11.68;;;5.60;99.90;;;;;;5071144;28;20170;-78
2021/03/11 07:45:40;;;;;;;25.13;12.18;;;5.60;99.90;;;;;;5058190;28;20203;-80
2021/03/11 07:48:07;;;;;;;26.55;11.35;;;5.60;99.90;;;;;;5052195;28;20227;-78
2021/03/11 07:50:32;;;;;;;19.30;11.55;;;5.60;99.90;;;;;;5061805;28;20548;-78
2021/03/11 07:52:59;;;;;;;21.67;10.50;;;5.70;99.90;;;;;;5076244;28;20187;-81
2021/03/11 07:55:29;;;;;;;27.35;13.35;;;5.80;99.90;;;;;;5055568;28;20615;-82
2021/03/11 07:58:02;;;;;;;19.50;12.50;;;5.80;99.90;;;;;;5055018;28;20180;-81
2021/03/11 08:00:29;;;;;;;26.48;11.75;;;5.80;99.90;;;;;;5070296;28;20196;-82
2021/03/11 08:03:00;;;;;;;18.35;11.60;;;5.80;99.90;;;;;;5084092;28;20312;-82
2021/03/11 08:05:27;;;;;;;21.70;10.65;;;5.70;99.90;;;;;;5088877;28;20242;-80
2021/03/11 08:08:22;;;;;;;23.00;11.68;;;5.80;99.90;;;;;;5081089;28;20169;-80
2021/03/11 08:10:49;;;;;;;21.45;11.48;;;5.80;99.90;;;;;;5064684;28;20211;-80
2021/03/11 08:13:31;;;;;;;22.15;12.73;;;5.90;99.90;;;;;;5081592;28;20221;-81
2021/03/11 08:15:58;;;;;;;24.38;10.52;;;5.90;99.90;;;;;;5076517;28;20193;-83
2021/03/11 08:18:33;;;;;;;23.10;11.70;;;5.90;99.90;;;;;;5070704;28;20177;-81
2021/03/11 08:21:07;;;;;;;21.70;11.23;;;5.90;99.90;;;;;;5078606;28;20192;-81
2021/03/11 08:23:34;;;;;;;19.58;12.27;;;5.90;99.90;;;;;;5068084;28;20204;-81
2021/03/11 08:26:01;;;;;;;21.38;12.32;;;5.90;99.90;;;;;;5071993;28;20173;-80
2021/03/11 08:28:29;;;;;;;24.10;12.15;;;5.90;99.90;;;;;;5077040;28;20161;-80
2021/03/11 08:31:04;;;;;;;30.15;12.82;;;5.90;99.90;;;;;;5065630;28;20181;-84
2021/03/11 08:33:29;;;;;;;26.58;12.65;;;5.90;99.90;;;;;;5066230;28;20259;-82
2021/03/11 08:35:57;;;;;;;20.30;10.37;;;6.00;99.90;;;;;;5081955;28;20196;-80
2021/03/11 08:38:22;;;;;;;20.40;10.23;;;6.00;99.90;;;;;;5082559;28;20180;-80
2021/03/11 08:41:03;;;;;;;18.90;9.70;;;6.00;99.90;;;;;;5072585;28;20266;-80
2021/03/11 08:43:38;;;;;;;25.25;12.63;;;6.00;99.90;;;;;;5062843;28;20187;-80
2021/03/11 08:46:13;;;;;;;23.90;12.07;;;6.00;99.90;;;;;;5078869;28;20677;-83
2021/03/11 08:48:50;;;;;;;19.35;10.60;;;6.00;99.90;;;;;;5068954;28;20235;-82
2021/03/11 08:51:21;;;;;;;20.55;9.98;;;6.10;99.90;;;;;;5076161;28;20628;-81
2021/03/11 08:53:51;;;;;;;20.73;10.15;;;6.10;99.90;;;;;;5081447;28;20180;-79
2021/03/11 08:56:17;;;;;;;30.40;11.43;;;6.00;99.90;;;;;;5080204;28;20176;-81
2021/03/11 08:59:04;;;;;;;17.20;10.07;;;6.10;99.90;;;;;;5085918;28;20448;-81
2021/03/11 09:01:53;;;;;;;23.90;10.63;;;6.20;99.90;;;;;;5075181;28;20175;-82
2021/03/11 09:04:29;;;;;;;17.35;9.85;;;6.20;99.90;;;;;;5076327;28;20164;-81
2021/03/11 09:06:58;;;;;;;19.92;11.52;;;6.20;99.90;;;;;;5078182;28;20183;-82
2021/03/11 09:09:35;;;;;;;18.50;9.38;;;6.30;99.90;;;;;;5068777;28;20745;-82
2021/03/11 09:12:03;;;;;;;18.67;9.70;;;6.30;99.90;;;;;;5076987;28;20172;-83
2021/03/11 09:14:29;;;;;;;19.88;10.60;;;6.30;99.90;;;;;;5081274;28;20207;-81
2021/03/11 09:17:14;;;;;;;24.30;11.73;;;6.40;99.90;;;;;;5069084;28;20173;-82
2021/03/11 09:19:40;;;;;;;19.88;10.10;;;6.40;99.90;;;;;;5081634;28;20203;-82
2021/03/11 09:22:20;;;;;;;14.93;9.80;;;6.40;99.90;;;;;;5079553;28;20191;-81
2021/03/11 09:24:57;;;;;;;15.95;9.52;;;6.30;99.90;;;;;;5072806;28;20172;-80
2021/03/11 09:27:24;;;;;;;15.02;9.25;;;6.40;99.90;;;;;;5059870;28;20536;-82
2021/03/11 09:29:52;;;;;;;16.45;9.43;;;6.40;99.90;;;;;;5064905;28;20228;-82
2021/03/11 09:32:18;;;;;;;19.17;9.90;;;6.50;99.90;;;;;;5069934;28;20183;-82
2021/03/11 09:35:14;;;;;;;15.90;9.83;;;6.50;99.90;;;;;;5073783;28;20180;-80
2021/03/11 09:37:56;;;;;;;17.95;9.00;;;6.50;99.90;;;;;;5060594;28;20245;-80
2021/03/11 09:40:33;;;;;;;20.13;9.40;;;6.50;99.90;;;;;;5062973;28;20231;-82
2021/03/11 09:43:10;;;;;;;21.95;10.00;;;6.50;99.90;;;;;;5068203;28;20275;-80
2021/03/11 09:45:38;;;;;;;16.40;9.25;;;6.60;99.90;;;;;;5063922;28;20535;-78
2021/03/11 09:48:06;;;;;;;15.15;9.35;;;6.60;99.90;;;;;;5078873;28;20176;-79
2021/03/11 09:50:56;;;;;;;18.42;9.23;;;6.60;99.90;;;;;;5078374;28;20195;-78
2021/03/11 09:53:23;;;;;;;15.80;8.55;;;6.60;99.90;;;;;;5078536;28;20234;-81
2021/03/11 09:55:56;;;;;;;14.82;9.55;;;6.60;99.90;;;;;;5076137;28;20184;-79
2021/03/11 09:58:22;;;;;;;20.20;7.82;;;6.60;99.90;;;;;;5068463;28;20250;-79
2021/03/11 10:00:49;;;;;;;13.80;8.40;;;6.70;99.90;;;;;;5060205;28;20199;-78
2021/03/11 10:03:25;;;;;;;17.17;8.82;;;6.70;99.90;;;;;;5079992;28;20271;-81
2021/03/11 10:06:05;;;;;;;16.85;8.43;;;6.70;99.90;;;;;;5064209;28;20532;-81
2021/03/11 10:08:39;;;;;;;17.73;8.57;;;6.80;99.90;;;;;;5061658;28;20230;-81
2021/03/11 10:11:21;;;;;;;15.88;9.15;;;6.80;99.90;;;;;;5040676;28;20211;-80
2021/03/11 10:13:51;;;;;;;17.98;9.98;;;6.80;99.90;;;;;;5069180;28;20225;-81
2021/03/11 10:16:56;;;;;;;16.17;9.05;;;6.90;99.90;;;;;;5068044;28;20183;-80
2021/03/11 10:19:27;;;;;;;16.55;7.55;;;6.90;99.90;;;;;;5081539;28;20200;-80
2021/03/11 10:22:04;;;;;;;18.33;9.38;;;7.00;99.90;;;;;;5069120;28;20230;-81
2021/03/11 10:24:42;;;;;;;15.75;9.43;;;7.00;99.90;;;;;;5071645;28;20198;-80
2021/03/11 10:27:26;;;;;;;21.10;8.90;;;7.10;99.90;;;;;;5073984;28;20164;-81
2021/03/11 10:30:06;;;;;;;20.08;8.77;;;7.00;99.90;;;;;;5063747;28;20230;-81
2021/03/11 10:32:32;;;;;;;11.25;7.13;;;7.00;99.90;;;;;;5063324;28;20180;-82
2021/03/11 10:34:59;;;;;;;13.85;7.93;;;7.00;99.90;;;;;;5063629;28;20206;-81
2021/03/11 10:37:37;;;;;;;20.40;8.57;;;7.00;99.90;;;;;;5065110;28;20194;-81
2021/03/11 10:40:19;;;;;;;14.70;8.60;;;7.00;99.90;;;;;;5065825;28;20200;-82
2021/03/11 10:42:51;;;;;;;18.83;10.82;;;7.00;99.90;;;;;;5076761;28;20205;-81
2021/03/11 10:45:26;;;;;;;22.35;8.98;;;7.00;99.90;;;;;;5059262;28;20191;-81
2021/03/11 10:48:21;;;;;;;15.27;8.52;;;7.10;99.90;;;;;;5058807;28;20176;-81
2021/03/11 10:50:52;;;;;;;15.60;7.63;;;7.10;99.90;;;;;;5031805;28;20365;-82
2021/03/11 10:53:20;;;;;;;15.95;7.13;;;7.30;99.90;;;;;;5070825;28;20233;-80
2021/03/11 10:55:47;;;;;;;12.27;7.40;;;7.30;99.90;;;;;;5056699;28;20169;-81
2021/03/11 10:58:20;;;;;;;22.17;9.10;;;7.40;99.90;;;;;;5069010;28;20176;-81
2021/03/11 11:00:48;;;;;;;16.60;8.40;;;7.50;99.90;;;;;;5072089;28;20220;-80
2021/03/11 11:03:13;;;;;;;21.02;8.13;;;7.70;99.90;;;;;;5066514;28;20176;-82
2021/03/11 11:05:39;;;;;;;11.00;7.17;;;7.80;99.90;;;;;;5057168;28;20177;-81
2021/03/11 11:08:08;;;;;;;15.47;9.57;;;8.00;99.90;;;;;;5070114;28;20225;-80
2021/03/11 11:10:34;;;;;;;13.70;7.70;;;8.20;99.90;;;;;;5073304;28;20231;-81
2021/03/11 11:13:06;;;;;;;12.77;8.30;;;8.30;99.90;;;;;;5053519;28;20180;-83
2021/03/11 11:15:35;;;;;;;14.43;9.18;;;8.40;99.90;;;;;;5076877;28;20427;-81
2021/03/11 11:18:01;;;;;;;19.88;10.70;;;8.50;99.90;;;;;;5061942;28;20197;-82
2021/03/11 11:20:26;;;;;;;13.40;8.03;;;8.60;99.90;;;;;;5039326;28;20285;-81
2021/03/11 11:22:55;;;;;;;10.13;6.63;;;9.00;99.90;;;;;;5051137;28;20421;-80
2021/03/11 11:25:21;;;;;;;13.20;7.95;;;;;;;;;;5076156;28;20187;-81
2021/03/11 11:27:46;;;;;;;13.73;8.18;;;9.30;99.90;;;;;;5067265;28;20172;-80
2021/03/11 11:30:14;;;;;;;12.50;7.63;;;9.40;99.90;;;;;;5064615;28;20667;-81
2021/03/11 11:32:39;;;;;;;12.93;7.72;;;9.40;99.90;;;;;;5066214;28;20449;-80
2021/03/11 11:35:25;;;;;;;15.90;8.10;;;9.30;99.90;;;;;;5073418;28;20192;-80
2021/03/11 11:37:52;;;;;;;10.93;6.82;;;9.30;99.90;;;;;;5064347;28;20181;-80
2021/03/11 11:40:19;;;;;;;17.25;8.43;;;9.30;99.90;;;;;;5053634;28;20248;-80
2021/03/11 11:42:44;;;;;;;16.27;7.60;;;9.10;99.90;;;;;;5053661;28;20547;-79
2021/03/11 11:45:11;;;;;;;14.13;8.53;;;9.10;99.90;;;;;;5051800;28;20260;-79
2021/03/11 11:47:38;;;;;;;18.00;8.68;;;9.20;99.90;;;;;;5055709;28;20566;-78
2021/03/11 11:50:06;;;;;;;13.88;7.93;;;9.20;99.90;;;;;;5073397;28;20199;-78
2021/03/11 11:52:32;;;;;;;14.32;7.63;;;9.20;99.90;;;;;;5060121;28;20188;-77
2021/03/11 11:54:57;;;;;;;13.65;8.02;;;9.40;99.90;;;;;;5072070;28;20648;-78
2021/03/11 11:57:23;;;;;;;12.23;7.63;;;9.50;99.90;;;;;;5055868;28;20188;-78
2021/03/11 11:59:49;;;;;;;13.73;8.33;;;9.60;99.90;;;;;;5064132;28;20207;-78
2021/03/11 12:02:17;;;;;;;16.97;8.03;;;9.60;99.90;;;;;;5076324;28;20176;-80
2021/03/11 12:04:43;;;;;;;17.55;9.48;;;9.60;99.90;;;;;;5059881;28;20184;-80
2021/03/11 12:07:09;;;;;;;10.45;6.72;;;9.70;99.90;;;;;;5056460;28;20165;-79
2021/03/11 12:09:35;;;;;;;11.98;5.97;;;9.70;99.90;;;;;;5060151;28;20274;-80
2021/03/11 12:12:01;;;;;;;26.73;11.57;;;9.80;99.90;;;;;;5057311;28;20332;-81
2021/03/11 12:14:32;;;;;;;46.83;18.52;;;10.10;99.90;;;;;;5077006;28;20210;-79
2021/03/11 12:16:57;;;;;;;20.58;9.48;;;10.10;99.90;;;;;;5070627;28;20234;-81
2021/03/11 12:19:23;;;;;;;14.73;7.67;;;10.20;99.90;;;;;;5056110;28;20617;-78
2021/03/11 12:21:51;;;;;;;10.67;6.27;;;10.20;99.90;;;;;;5065828;28;20260;-79
2021/03/11 12:24:17;;;;;;;9.95;5.95;;;10.40;99.90;;;;;;5058725;28;20177;-79
2021/03/11 12:26:43;;;;;;;8.60;5.67;;;10.40;99.90;;;;;;5063217;28;20585;-80
2021/03/11 12:29:08;;;;;;;11.83;6.97;;;10.40;99.90;;;;;;5079803;28;20245;-80
2021/03/11 12:31:34;;;;;;;18.07;7.20;;;10.40;99.90;;;;;;5076176;28;20194;-80
2021/03/11 12:34:00;;;;;;;12.43;7.17;;;10.40;99.90;;;;;;5078298;28;20164;-81
2021/03/11 12:36:26;;;;;;;9.00;5.77;;;10.50;99.90;;;;;;5072864;28;20169;-80
2021/03/11 12:38:52;;;;;;;11.57;6.75;;;10.60;99.90;;;;;;5067663;28;20189;-80
2021/03/11 12:41:22;;;;;;;8.68;6.00;;;10.60;99.90;;;;;;5064474;28;20228;-80
2021/03/11 12:43:48;;;;;;;9.23;6.50;;;10.50;99.90;;;;;;5055969;28;20242;-79
2021/03/11 12:46:17;;;;;;;8.80;6.45;;;10.50;99.90;;;;;;5056768;28;20169;-82
2021/03/11 12:48:45;;;;;;;9.02;6.03;;;10.50;99.90;;;;;;5063245;28;20666;-81
2021/03/11 12:51:11;;;;;;;12.20;6.45;;;10.50;99.90;;;;;;5064417;28;20193;-80
2021/03/11 12:53:36;;;;;;;9.17;7.30;;;10.60;99.90;;;;;;5074585;28;20198;-80